Time;durP1;ratioP1;P1;durP2;ratioP2;P2;SDS_P1;SDS_P2;PMS_P1;PMS_P2;Temp;Humidity;BMP_temperature;BMP_pressure;BME280_temperature;BME280_humidity;BME280_pressure;Samples;Min_cycle;Max_cycle;Signal;HPM_P1;HPM_P2
2022/12/06 00:00:39;;;;;;;11.47;4.43;;;;;;;18.88;49.61;100603.34;5044522;28;20520;-65
2022/12/06 00:03:05;;;;;;;7.03;4.20;;;;;;;18.89;49.65;100598.44;5038775;28;20164;-65
2022/12/06 00:05:30;;;;;;;16.63;5.30;;;;;;;18.86;50.13;100597.16;5055061;28;20230;-65
2022/12/06 00:07:56;;;;;;;13.57;4.80;;;;;;;18.87;50.05;100601.66;5037711;28;20172;-65
2022/12/06 00:10:21;;;;;;;9.40;4.47;;;;;;;18.89;49.90;100604.16;5041531;28;20183;-65
2022/12/06 00:12:47;;;;;;;7.50;4.00;;;;;;;18.83;50.35;100597.09;5035746;28;20164;-65
2022/12/06 00:15:12;;;;;;;11.03;4.80;;;;;;;18.83;50.62;100602.81;5020067;28;20180;-65
2022/12/06 00:17:38;;;;;;;8.20;4.13;;;;;;;18.83;50.34;100603.66;5035536;28;20202;-65
2022/12/06 00:20:04;;;;;;;9.00;4.70;;;;;;;18.78;50.72;100606.81;5035893;28;20235;-65
2022/12/06 00:22:30;;;;;;;10.00;3.90;;;;;;;18.83;51.07;100599.94;5020198;28;20260;-65
2022/12/06 00:24:55;;;;;;;9.93;4.13;;;;;;;18.78;50.97;100597.38;5035472;28;20500;-65
2022/12/06 00:27:21;;;;;;;13.13;4.40;;;;;;;18.77;51.32;100598.59;5038616;28;20618;-65
2022/12/06 00:29:47;;;;;;;7.47;3.93;;;;;;;18.78;51.19;100598.22;5046778;28;20176;-65
2022/12/06 00:32:12;;;;;;;7.37;3.90;;;;;;;18.79;51.21;100590.44;5055635;28;20656;-65
2022/12/06 00:34:37;;;;;;;11.13;4.50;;;;;;;18.74;51.49;100594.44;5053434;28;20259;-65
2022/12/06 00:37:03;;;;;;;7.13;3.50;;;;;;;18.76;51.50;100586.31;5052522;28;20186;-65
2022/12/06 00:39:28;;;;;;;8.70;3.80;;;;;;;18.73;51.64;100591.97;5055617;28;20270;-65
2022/12/06 00:41:55;;;;;;;8.80;3.73;;;;;;;18.72;52.15;100588.25;5043589;28;20181;-65
2022/12/06 00:44:20;;;;;;;7.47;3.80;;;;;;;18.74;52.11;100585.03;5034838;28;20251;-65
2022/12/06 00:46:46;;;;;;;9.70;4.27;;;;;;;18.75;51.73;100586.69;5035437;28;20508;-65
2022/12/06 00:49:11;;;;;;;10.07;4.03;;;;;;;18.73;51.95;100575.63;5038000;28;20191;-65
2022/12/06 00:51:37;;;;;;;8.37;4.00;;;;;;;18.78;52.31;100571.63;5043032;28;20232;-65
2022/12/06 00:54:02;;;;;;;7.70;4.20;;;;;;;18.73;51.91;100577.66;5036518;28;20237;-65
2022/12/06 00:56:28;;;;;;;6.90;3.90;;;;;;;18.72;51.87;100579.69;5045486;28;20184;-65
2022/12/06 00:58:53;;;;;;;7.43;4.10;;;;;;;18.72;52.08;100582.53;5055071;28;20195;-65
2022/12/06 01:01:24;;;;;;;10.33;3.73;;;;;;;18.69;52.07;100580.44;5054752;28;20183;-65
2022/12/06 01:03:50;;;;;;;8.57;3.90;;;;;;;18.71;52.05;100574.34;5063685;28;20175;-65
2022/12/06 01:06:16;;;;;;;8.60;3.50;;;;;;;18.69;52.48;100571.88;5052609;28;21192;-65
2022/12/06 01:08:42;;;;;;;6.63;3.87;;;;;;;18.70;52.44;100570.66;5054419;28;20419;-65
2022/12/06 01:11:07;;;;;;;7.23;4.03;;;;;;;18.65;52.33;100572.97;5054664;28;20211;-65
2022/12/06 01:13:33;;;;;;;7.23;3.73;;;;;;;18.66;52.87;100569.75;5053932;28;20262;-65
2022/12/06 01:16:09;;;;;;;7.57;4.20;;;;;;;18.68;52.39;100569.38;5039608;28;20189;-65
2022/12/06 01:18:35;;;;;;;9.07;3.50;;;;;;;18.71;52.48;100562.91;5053971;28;20178;-65
2022/12/06 01:21:13;;;;;;;12.23;3.77;;;;;;;18.68;52.86;100572.25;5067762;28;20433;-65
2022/12/06 01:23:38;;;;;;;6.10;3.70;;;;;;;18.64;52.77;100572.16;5073979;28;20738;-65
2022/12/06 01:26:05;;;;;;;6.00;3.47;;;;;;;18.70;52.48;100570.66;5057919;28;20474;-65
2022/12/06 01:28:30;;;;;;;6.50;3.27;;;;;;;18.74;52.40;100563.00;5036537;28;20168;-65
2022/12/06 01:30:55;;;;;;;7.87;4.03;;;;;;;18.70;52.48;100576.38;5072382;28;20475;-65
2022/12/06 01:33:21;;;;;;;7.00;3.37;;;;;;;18.66;53.01;100568.94;5074165;28;20175;-65
2022/12/06 01:35:46;;;;;;;6.53;3.70;;;;;;;18.66;53.03;100572.59;5068124;28;20183;-65
2022/12/06 01:38:12;;;;;;;6.47;3.67;;;;;;;18.66;53.11;100566.06;5074701;28;20232;-65
2022/12/06 01:40:41;;;;;;;6.50;3.63;;;;;;;18.66;53.57;100566.88;5071263;28;20194;-65
2022/12/06 01:43:36;;;;;;;4.50;2.90;;;;;;;18.64;53.19;100566.44;5054135;28;20183;-65
2022/12/06 01:46:06;;;;;;;8.70;3.03;;;;;;;18.66;52.83;100561.16;5054578;28;21188;-65
2022/12/06 01:48:31;;;;;;;5.50;3.47;;;;;;;18.68;53.29;100564.50;5057952;28;20446;-65
2022/12/06 01:50:57;;;;;;;5.17;2.67;;;;;;;18.62;53.00;100565.97;5040792;28;20413;-65
2022/12/06 01:53:22;;;;;;;5.70;3.40;;;;;;;18.66;53.12;100560.34;5074443;28;20217;-65
2022/12/06 01:55:47;;;;;;;6.90;3.50;;;;;;;18.66;53.29;100555.44;5072617;28;20175;-65
2022/12/06 01:58:16;;;;;;;4.90;2.93;;;;;;;18.62;53.04;100557.41;5034977;28;20227;-65
2022/12/06 02:00:42;;;;;;;5.57;3.10;;;;;;;18.65;52.96;100561.53;5055809;28;20518;-65
2022/12/06 02:03:09;;;;;;;5.23;3.43;;;;;;;18.65;53.19;100553.78;5059944;28;20527;-65
2022/12/06 02:05:35;;;;;;;4.73;2.57;;;;;;;18.63;53.24;100556.22;5073496;28;20207;-65
2022/12/06 02:08:01;;;;;;;5.23;3.40;;;;;;;18.61;53.18;100550.03;5056808;28;20839;-65
2022/12/06 02:10:26;;;;;;;6.53;3.70;;;;;;;18.63;53.35;100556.22;5071279;28;20441;-65
2022/12/06 02:12:53;;;;;;;6.27;3.60;;;;;;;18.61;53.35;100555.75;5054866;28;20222;-65
2022/12/06 02:15:19;;;;;;;5.13;2.87;;;;;;;18.60;53.14;100547.53;5036599;28;20178;-65
2022/12/06 02:17:47;;;;;;;6.37;3.00;;;;;;;18.62;53.43;100545.97;5039574;28;20426;-65
2022/12/06 02:20:17;;;;;;;5.27;3.53;;;;;;;18.62;53.31;100545.16;5019888;28;20160;-65
2022/12/06 02:23:03;;;;;;;4.93;3.43;;;;;;;18.58;53.72;100545.09;5054855;28;20466;-65
2022/12/06 02:25:50;;;;;;;6.37;3.40;;;;;;;18.57;53.52;100543.41;5039346;28;20478;-65
2022/12/06 02:28:21;;;;;;;6.23;3.10;;;;;;;18.60;53.47;100544.69;5054279;28;20488;-65
2022/12/06 02:31:07;;;;;;;6.77;3.33;;;;;;;18.59;53.51;100549.59;5067647;28;20433;-65
2022/12/06 02:33:47;;;;;;;5.53;2.60;;;;;;;18.56;53.51;100538.06;5054371;28;20943;-65
2022/12/06 02:36:35;;;;;;;4.27;2.80;;;;;;;18.56;53.60;100538.88;5064580;28;20412;-65
2022/12/06 02:39:10;;;;;;;4.70;3.13;;;;;;;18.58;53.54;100547.94;5063867;28;20520;-65
2022/12/06 02:41:46;;;;;;;8.50;3.20;;;;;;;18.60;53.93;100545.53;5059497;28;21016;-65
2022/12/06 02:44:17;;;;;;;4.97;3.20;;;;;;;18.59;53.39;100543.03;5029356;28;20445;-65
2022/12/06 02:46:42;;;;;;;8.67;3.17;;;;;;;18.56;53.46;100536.03;5023765;28;20449;-65
2022/12/06 02:49:08;;;;;;;6.20;3.57;;;;;;;18.56;53.60;100536.03;5057209;28;20414;-65
2022/12/06 02:51:34;;;;;;;6.93;3.27;;;;;;;18.55;53.86;100534.38;5040312;28;20190;-65
2022/12/06 02:54:00;;;;;;;5.73;2.80;;;;;;;18.56;53.66;100538.88;5045839;28;20178;-65
2022/12/06 02:56:25;;;;;;;6.00;3.07;;;;;;;18.59;54.01;100543.03;5075571;28;20881;-65
2022/12/06 02:58:51;;;;;;;4.33;2.93;;;;;;;18.59;53.66;100538.16;5054945;28;20474;-65
2022/12/06 03:01:19;;;;;;;4.83;3.07;;;;;;;18.54;53.87;100543.31;5039090;28;20703;-65
2022/12/06 03:03:53;;;;;;;4.67;2.83;;;;;;;18.56;53.54;100538.88;5031668;28;20413;-65
2022/12/06 03:06:43;;;;;;;5.00;3.20;;;;;;;18.55;53.84;100548.69;5076742;28;20522;-65
2022/12/06 03:09:11;;;;;;;4.73;2.60;;;;;;;18.54;53.47;100549.03;5077427;28;20472;-65
2022/12/06 03:12:28;;;;;;;4.20;2.90;;;;;;;18.57;53.73;100545.44;5076793;28;20532;-65
2022/12/06 03:14:57;;;;;;;5.93;3.00;;;;;;;18.56;53.91;100538.88;4959844;28;21435;-65
2022/12/06 03:17:34;;;;;;;4.60;2.90;;;;;;;18.55;53.78;100539.25;4963763;28;20450;-65
2022/12/06 03:20:23;;;;;;;4.20;2.90;;;;;;;18.56;53.63;100544.59;5021789;28;20426;-65
2022/12/06 03:22:51;;;;;;;5.03;2.90;;;;;;;18.56;54.03;100547.47;5043200;28;20929;-65
2022/12/06 03:25:17;;;;;;;5.77;3.33;;;;;;;18.55;54.28;100542.97;5021833;28;20812;-65
2022/12/06 03:27:42;;;;;;;4.43;2.60;;;;;;;18.53;54.02;100539.66;5059936;28;20412;-65
2022/12/06 03:30:10;;;;;;;6.23;3.03;;;;;;;18.53;53.81;100533.94;5072899;28;20178;-65
2022/12/06 03:32:36;;;;;;;5.83;3.10;;;;;;;18.56;53.74;100527.44;5025382;28;20810;-65
2022/12/06 03:35:06;;;;;;;5.30;2.93;;;;;;;18.54;54.09;100532.72;5056059;28;20418;-65
2022/12/06 03:37:32;;;;;;;5.50;3.20;;;;;;;18.51;53.80;100530.59;5059348;28;20533;-65
2022/12/06 03:40:19;;;;;;;5.33;3.00;;;;;;;18.56;53.95;100526.66;5021984;28;20876;-65
2022/12/06 03:42:44;;;;;;;5.27;3.03;;;;;;;18.56;54.08;100523.78;5031691;28;20190;-65
2022/12/06 03:45:10;;;;;;;5.30;2.90;;;;;;;18.53;53.90;100522.50;5076104;28;20461;-65
2022/12/06 03:47:43;;;;;;;5.70;3.13;;;;;;;18.55;53.78;100520.09;5073638;28;20183;-65
2022/12/06 03:50:12;;;;;;;4.27;3.10;;;;;;;18.53;54.16;100522.50;5044672;28;20179;-65
2022/12/06 03:52:37;;;;;;;3.70;2.50;;;;;;;18.53;54.26;100516.78;5076015;28;21047;-65
2022/12/06 03:55:03;;;;;;;4.63;2.67;;;;;;;18.55;53.92;100522.94;5074354;28;20432;-65
2022/12/06 03:57:29;;;;;;;3.73;2.43;;;;;;;18.55;53.76;100525.81;5069337;28;20326;-65
2022/12/06 03:59:54;;;;;;;3.60;2.50;;;;;;;18.50;53.84;100523.25;5056510;28;20160;-65
2022/12/06 04:02:19;;;;;;;4.60;2.80;;;;;;;18.49;54.25;100518.72;5074314;28;20175;-65
2022/12/06 04:04:45;;;;;;;4.93;2.63;;;;;;;18.57;53.73;100511.94;5073521;28;20202;-65
2022/12/06 04:07:11;;;;;;;4.20;2.70;;;;;;;18.54;54.03;100520.44;5075706;28;20213;-65
2022/12/06 04:09:51;;;;;;;5.57;2.60;;;;;;;18.49;54.01;100515.88;5075676;28;20553;-65
2022/12/06 04:15:01;;;;;;;4.07;2.93;;;;;;;18.54;53.87;100514.72;5055817;28;20417;-65
2022/12/06 04:20:10;;;;;;;4.87;2.60;;;;;;;18.54;54.24;100512.72;5055031;28;20705;-65
2022/12/06 04:25:19;;;;;;;4.70;2.70;;;;;;;18.53;54.05;100505.34;5059193;28;20265;-65
2022/12/06 04:38:43;;;;;;;3.83;2.47;;;;;;;18.50;54.14;100502.38;5065155;28;20982;-65
2022/12/06 04:43:40;;;;;;;4.77;2.57;;;;;;;18.50;54.54;100500.38;5055055;28;20830;-65
2022/12/06 04:43:57;;;;;;;4.20;2.63;;;;;;;18.51;54.39;100501.22;5057017;28;20924;-65
2022/12/06 04:46:22;;;;;;;5.53;2.80;;;;;;;18.50;54.44;100506.09;5054207;28;20466;-65
2022/12/06 04:48:48;;;;;;;3.87;2.60;;;;;;;18.50;54.29;100494.66;5054517;28;20165;-65
2022/12/06 04:51:13;;;;;;;3.40;2.30;;;;;;;18.53;54.14;100499.63;5071583;28;20197;-65
2022/12/06 04:53:39;;;;;;;4.60;2.50;;;;;;;18.54;54.06;100494.72;5074569;28;20174;-65
2022/12/06 04:56:04;;;;;;;4.30;2.60;;;;;;;18.54;54.58;100494.72;5068787;28;20180;-65
2022/12/06 04:58:30;;;;;;;3.77;2.50;;;;;;;18.53;53.96;100496.78;5060843;28;20627;-65
2022/12/06 05:00:55;;;;;;;4.27;2.00;;;;;;;18.51;54.33;100495.50;5073809;28;20175;-65
2022/12/06 05:03:21;;;;;;;3.47;2.50;;;;;;;18.53;54.74;100505.34;5063551;28;20182;-65
2022/12/06 05:05:46;;;;;;;3.80;2.60;;;;;;;18.54;54.20;100491.84;5056096;28;20222;-65
2022/12/06 05:08:12;;;;;;;4.47;2.40;;;;;;;18.49;54.02;100492.16;5067922;28;20183;-65
2022/12/06 05:10:37;;;;;;;3.57;2.60;;;;;;;18.54;54.28;100489.84;5036946;28;20184;-65
2022/12/06 05:13:03;;;;;;;4.50;2.40;;;;;;;18.52;54.42;100491.44;5054960;28;20172;-65
2022/12/06 05:15:28;;;;;;;4.93;2.27;;;;;;;18.54;54.24;100492.69;5054744;28;20168;-65
2022/12/06 05:17:54;;;;;;;3.10;2.30;;;;;;;18.55;54.20;100494.34;5057522;28;20674;-65
2022/12/06 05:20:19;;;;;;;3.60;2.67;;;;;;;18.53;54.12;100495.94;5054677;28;20167;-65
2022/12/06 05:22:45;;;;;;;4.53;2.83;;;;;;;18.56;54.13;100486.63;5066923;28;20684;-65
2022/12/06 05:25:10;;;;;;;3.97;2.53;;;;;;;18.52;54.48;100497.94;5054657;28;20238;-65
2022/12/06 05:27:35;;;;;;;3.67;2.70;;;;;;;18.53;54.18;100493.91;5054663;28;20549;-65
2022/12/06 05:30:01;;;;;;;3.80;2.57;;;;;;;18.51;54.29;100495.50;5066683;28;20209;-65
2022/12/06 05:32:26;;;;;;;3.47;2.20;;;;;;;18.54;54.02;100506.16;5074489;28;20167;-65
2022/12/06 05:34:52;;;;;;;3.67;2.47;;;;;;;18.52;54.07;100502.84;5070371;28;20183;-65
2022/12/06 05:37:17;;;;;;;3.53;2.23;;;;;;;18.58;53.89;100496.47;5072692;28;20578;-65
2022/12/06 05:39:42;;;;;;;6.47;2.10;;;;;;;18.55;54.03;100490.66;5075447;28;20179;-65
2022/12/06 05:42:08;;;;;;;3.60;2.53;;;;;;;18.53;54.11;100493.06;5060292;28;20649;-65
2022/12/06 05:44:33;;;;;;;4.00;2.47;;;;;;;18.52;54.27;100485.69;5054502;28;20230;-65
2022/12/06 05:46:59;;;;;;;3.73;2.10;;;;;;;18.54;54.13;100489.84;5036634;28;20209;-65
2022/12/06 05:49:25;;;;;;;3.20;2.20;;;;;;;18.55;53.96;100491.50;5057136;28;20224;-65
2022/12/06 05:51:50;;;;;;;4.20;2.70;;;;;;;18.57;54.20;100489.06;5074410;28;20159;-65
2022/12/06 05:54:16;;;;;;;4.83;2.70;;;;;;;18.57;54.41;100491.13;5059014;28;20615;-65
2022/12/06 05:56:41;;;;;;;3.90;2.50;;;;;;;18.55;54.05;100491.50;5054473;28;20584;-65
2022/12/06 05:59:07;;;;;;;4.13;2.17;;;;;;;18.55;54.23;100484.94;5056572;28;20180;-65
2022/12/06 06:01:32;;;;;;;4.20;2.43;;;;;;;18.55;54.33;100480.06;5056235;28;20258;-65
2022/12/06 06:03:57;;;;;;;5.00;2.20;;;;;;;18.52;54.49;100489.38;5063835;28;20198;-65
2022/12/06 06:06:23;;;;;;;3.73;2.37;;;;;;;18.54;54.05;100489.00;5071530;28;20207;-65
2022/12/06 06:08:48;;;;;;;3.30;2.33;;;;;;;18.53;54.39;100484.50;5055373;28;20235;-65
2022/12/06 06:11:14;;;;;;;4.47;2.13;;;;;;;18.50;54.44;100488.94;5074013;28;20286;-65
2022/12/06 06:13:39;;;;;;;3.97;2.23;;;;;;;18.59;54.36;100489.53;5067357;28;20187;-65
2022/12/06 06:16:05;;;;;;;3.07;2.30;;;;;;;18.50;54.18;100490.94;5058109;28;20535;-65
2022/12/06 06:18:30;;;;;;;4.27;2.00;;;;;;;18.52;54.35;100488.56;5060119;28;20502;-65
2022/12/06 06:20:57;;;;;;;3.40;2.17;;;;;;;18.59;54.45;100486.69;5077201;28;20187;-65
2022/12/06 06:23:23;;;;;;;3.90;2.50;;;;;;;18.56;54.24;100490.28;5078303;28;20183;-65
2022/12/06 06:25:48;;;;;;;3.80;2.13;;;;;;;18.54;53.99;100486.97;5066359;28;20462;-65
2022/12/06 06:28:14;;;;;;;5.23;2.20;;;;;;;18.60;53.89;100488.31;5058291;28;20226;-65
2022/12/06 06:30:39;;;;;;;5.93;2.60;;;;;;;18.55;53.90;100480.06;5043520;28;20187;-65
2022/12/06 06:33:05;;;;;;;3.53;2.23;;;;;;;18.56;54.39;100483.75;5066047;28;20202;-65
2022/12/06 06:35:30;;;;;;;4.00;2.50;;;;;;;18.60;54.23;100476.88;5061892;28;20175;-65
2022/12/06 06:37:56;;;;;;;4.70;2.40;;;;;;;18.61;54.08;100481.41;5077974;28;20175;-65
2022/12/06 06:40:21;;;;;;;4.07;2.37;;;;;;;18.56;54.15;100486.63;5062194;28;20179;-65
2022/12/06 06:42:47;;;;;;;3.53;2.30;;;;;;;18.61;54.37;100489.97;5058910;28;20203;-65
2022/12/06 06:45:12;;;;;;;3.40;2.40;;;;;;;18.59;54.28;100491.56;5077973;28;20191;-65
2022/12/06 06:47:38;;;;;;;4.10;2.20;;;;;;;18.55;54.28;100494.34;5068511;28;20188;-65
2022/12/06 06:50:04;;;;;;;3.87;2.03;;;;;;;18.62;54.00;100497.34;5060615;28;20179;-65
2022/12/06 06:52:30;;;;;;;4.53;2.20;;;;;;;18.56;54.19;100492.34;5075989;28;20262;-65
2022/12/06 06:54:56;;;;;;;3.23;2.23;;;;;;;18.59;54.08;100503.84;5077094;28;20511;-65
2022/12/06 06:57:21;;;;;;;4.37;2.30;;;;;;;18.56;54.33;100498.06;5077585;28;20222;-65
2022/12/06 06:59:47;;;;;;;3.97;2.53;;;;;;;18.56;54.32;100495.19;5065616;28;20191;-65
2022/12/06 07:02:13;;;;;;;3.10;2.03;;;;;;;18.60;54.25;100499.75;5064562;28;20192;-65
2022/12/06 07:04:38;;;;;;;2.83;2.00;;;;;;;18.56;54.34;100498.84;5076408;28;20203;-65
2022/12/06 07:07:04;;;;;;;4.30;2.37;;;;;;;18.56;54.14;100498.84;5076831;28;20464;-65
2022/12/06 07:09:30;;;;;;;2.77;1.83;;;;;;;18.59;54.00;100500.97;5061599;28;20510;-65
2022/12/06 07:11:57;;;;;;;3.00;1.90;;;;;;;18.55;54.28;100502.94;5056822;28;20186;-65
2022/12/06 07:14:23;;;;;;;4.30;2.00;;;;;;;18.58;54.25;100502.19;5060611;28;20188;-65
2022/12/06 07:16:48;;;;;;;3.07;1.97;;;;;;;18.56;54.12;100504.56;5057859;28;20894;-65
2022/12/06 07:19:14;;;;;;;3.00;1.90;;;;;;;18.61;54.15;100512.84;5065338;28;20198;-65
2022/12/06 07:21:39;;;;;;;3.90;2.30;;;;;;;18.57;54.41;100505.41;5053188;28;20195;-65
2022/12/06 07:24:05;;;;;;;3.53;2.23;;;;;;;18.60;54.25;100508.34;5040530;28;20175;-65
2022/12/06 07:26:31;;;;;;;3.03;2.33;;;;;;;18.60;54.30;100508.34;5065795;28;20222;-65
2022/12/06 07:28:59;;;;;;;2.73;2.00;;;;;;;18.59;53.95;100514.44;5078406;28;20414;-65
2022/12/06 07:31:26;;;;;;;3.50;2.07;;;;;;;18.61;54.02;100518.56;5076488;28;20167;-65
2022/12/06 07:33:59;;;;;;;3.30;2.20;;;;;;;18.66;53.84;100523.19;5041692;28;20483;-65
2022/12/06 07:36:26;;;;;;;2.70;2.00;;;;;;;18.61;54.26;100518.56;5050429;28;20492;-65
2022/12/06 07:38:53;;;;;;;2.53;1.60;;;;;;;18.62;54.12;100522.28;5065732;28;20438;-65
2022/12/06 07:46:47;;;;;;;4.43;2.50;;;;;;;18.56;54.12;100516.00;5057818;28;20476;-65
2022/12/06 07:49:14;;;;;;;3.90;2.37;;;;;;;18.62;54.18;100519.41;5056030;28;20411;-65
2022/12/06 07:51:40;;;;;;;3.83;2.00;;;;;;;18.62;53.96;100525.13;5039860;28;20244;-65
2022/12/06 07:54:06;;;;;;;3.20;2.00;;;;;;;18.62;54.18;100523.09;5056814;28;20426;-65
2022/12/06 07:56:31;;;;;;;3.60;2.33;;;;;;;18.57;54.30;100514.81;5058985;28;20558;-65
2022/12/06 07:58:56;;;;;;;3.87;2.40;;;;;;;18.63;54.04;100519.03;5058306;28;20198;-65
2022/12/06 08:01:22;;;;;;;3.60;2.27;;;;;;;18.59;54.11;100525.88;5057514;28;20491;-65
2022/12/06 08:03:47;;;;;;;3.33;2.00;;;;;;;18.58;54.28;100522.22;5066305;28;20531;-65
2022/12/06 08:06:13;;;;;;;3.63;2.03;;;;;;;18.61;54.36;100512.03;5061431;28;20211;-65
2022/12/06 08:08:38;;;;;;;2.70;1.80;;;;;;;18.63;54.06;100516.19;5039825;28;20164;-65
2022/12/06 08:11:05;;;;;;;3.10;1.80;;;;;;;18.59;54.19;100526.72;5072910;28;20178;-65
2022/12/06 08:13:31;;;;;;;2.97;1.77;;;;;;;18.64;54.19;100517.84;5059209;28;20270;-65
2022/12/06 08:15:56;;;;;;;3.77;2.40;;;;;;;18.58;54.31;100519.34;5058935;28;20488;-65
2022/12/06 08:18:22;;;;;;;2.73;1.80;;;;;;;18.62;54.42;100523.09;5077339;28;20194;-65
2022/12/06 08:20:47;;;;;;;3.07;2.07;;;;;;;18.63;54.25;100524.75;5054960;28;20191;-65
2022/12/06 08:23:12;;;;;;;2.83;2.10;;;;;;;18.63;54.06;100527.63;5077416;28;20549;-65
2022/12/06 08:25:38;;;;;;;3.20;2.30;;;;;;;18.62;54.45;100528.00;5045034;28;20688;-65
2022/12/06 08:28:03;;;;;;;5.37;2.20;;;;;;;18.64;54.13;100523.56;5059254;28;20206;-65
2022/12/06 08:30:29;;;;;;;3.20;2.07;;;;;;;18.60;54.32;100525.50;5067288;28;20898;-65
2022/12/06 08:32:54;;;;;;;4.10;2.00;;;;;;;18.55;54.43;100517.22;5072447;28;20171;-65
2022/12/06 08:35:20;;;;;;;3.40;2.00;;;;;;;18.60;54.15;100527.53;5058848;28;20175;-65
2022/12/06 08:37:45;;;;;;;4.17;2.10;;;;;;;18.60;54.19;100528.38;5077194;28;20224;-65
2022/12/06 08:40:11;;;;;;;3.00;2.00;;;;;;;18.64;53.99;100535.00;5061797;28;20191;-65
2022/12/06 08:42:36;;;;;;;3.10;1.77;;;;;;;18.61;54.35;100523.47;5069508;28;20171;-65
2022/12/06 08:45:02;;;;;;;2.83;2.03;;;;;;;18.65;54.05;100525.19;5067853;28;20597;-65
2022/12/06 08:47:28;;;;;;;3.40;2.10;;;;;;;18.61;54.24;100529.19;5056839;28;20279;-65
2022/12/06 08:49:53;;;;;;;3.70;1.87;;;;;;;18.61;54.33;100540.63;5060145;28;20176;-65
2022/12/06 08:52:18;;;;;;;2.90;2.00;;;;;;;18.60;54.08;100525.50;5076495;28;20179;-65
2022/12/06 08:54:44;;;;;;;2.97;2.00;;;;;;;18.62;54.16;100528.81;5076506;28;20198;-65
2022/12/06 08:57:09;;;;;;;3.93;2.00;;;;;;;18.62;54.04;100534.53;5076535;28;20658;-65
2022/12/06 08:59:35;;;;;;;3.40;2.10;;;;;;;18.59;54.14;100532.44;5068513;28;20191;-65
2022/12/06 09:02:01;;;;;;;2.97;2.10;;;;;;;18.61;54.29;100541.44;5058806;28;20187;-65
2022/12/06 09:04:27;;;;;;;2.67;1.73;;;;;;;18.60;54.45;100550.41;5070154;28;20448;-65
2022/12/06 09:06:52;;;;;;;3.17;2.00;;;;;;;18.60;54.37;100548.38;5072967;28;20207;-65
2022/12/06 09:09:18;;;;;;;3.10;2.20;;;;;;;18.59;54.34;100549.59;5076151;28;20174;-65
2022/12/06 09:11:44;;;;;;;3.27;2.10;;;;;;;18.59;54.15;100555.31;5075532;28;20164;-65
2022/12/06 09:14:13;;;;;;;3.30;2.07;;;;;;;18.61;54.02;100557.78;5073718;28;20276;-65
2022/12/06 09:16:42;;;;;;;3.00;1.60;;;;;;;18.60;54.33;100554.09;5038321;28;20199;-65
2022/12/06 09:19:08;;;;;;;2.90;1.93;;;;;;;18.63;54.16;100552.53;5074266;28;20422;-65
2022/12/06 09:21:34;;;;;;;2.57;1.67;;;;;;;18.63;54.18;100555.38;5058785;28;20636;-65
2022/12/06 09:23:59;;;;;;;3.83;2.40;;;;;;;18.59;54.33;100555.31;5055560;28;20797;-65
2022/12/06 09:26:25;;;;;;;3.20;2.00;;;;;;;18.57;54.31;100557.69;5058410;28;20212;-65
2022/12/06 09:28:51;;;;;;;2.77;1.60;;;;;;;18.58;54.39;100553.66;5056256;28;20251;-65
2022/12/06 09:31:17;;;;;;;4.20;1.80;;;;;;;18.62;54.14;100556.59;5038986;28;20444;-65
2022/12/06 09:33:43;;;;;;;2.63;1.80;;;;;;;18.59;54.26;100555.31;5059306;28;20670;-65
2022/12/06 09:36:12;;;;;;;3.00;1.70;;;;;;;18.58;53.89;100553.66;5075621;28;20421;-65
2022/12/06 09:38:37;;;;;;;3.40;1.90;;;;;;;18.60;54.61;100553.25;5040905;28;20184;-65
2022/12/06 09:41:22;;;;;;;2.90;2.03;;;;;;;18.58;54.58;100550.78;5067204;28;20414;-65
2022/12/06 09:44:25;;;;;;;2.93;1.80;;;;;;;18.61;54.64;100552.06;5065053;28;20222;-65
2022/12/06 09:46:50;;;;;;;3.10;1.83;;;;;;;18.60;54.74;100551.25;5072216;28;20509;-65
2022/12/06 09:49:28;;;;;;;2.83;1.97;;;;;;;18.64;54.20;100552.16;5074137;28;20434;-65
2022/12/06 09:52:32;;;;;;;2.60;1.73;;;;;;;18.67;54.22;100550.56;5060337;28;20191;-65
2022/12/06 09:55:03;;;;;;;2.63;1.60;;;;;;;18.63;55.00;100552.53;5062883;28;20412;-65
2022/12/06 09:57:47;;;;;;;2.90;1.70;;;;;;;18.62;54.18;100553.72;5059716;28;20466;-65
2022/12/06 10:00:18;;;;;;;3.77;1.73;;;;;;;18.64;54.84;100554.16;5060162;28;20454;-65
2022/12/06 10:03:05;;;;;;;2.80;1.80;;;;;;;18.61;54.04;100550.03;5059940;28;21055;-65
2022/12/06 10:05:40;;;;;;;2.50;1.90;;;;;;;18.64;54.20;100545.59;5063405;28;20867;-65
2022/12/06 10:08:13;;;;;;;2.30;1.50;;;;;;;18.64;53.99;100549.28;5080583;28;20399;-65
2022/12/06 10:11:12;;;;;;;2.00;1.37;;;;;;;18.61;54.39;100541.44;5051578;28;20442;-65
2022/12/06 10:14:13;;;;;;;2.60;1.50;;;;;;;18.65;54.15;100542.34;5028228;28;20432;-65
2022/12/06 10:16:50;;;;;;;2.37;1.50;;;;;;;18.65;54.05;100530.06;5046455;28;20437;-65
2022/12/06 10:19:40;;;;;;;2.33;1.50;;;;;;;18.61;54.34;100535.72;5042283;28;20421;-65
2022/12/06 10:22:24;;;;;;;2.83;1.87;;;;;;;18.62;54.26;100537.38;5063234;28;20422;-65
2022/12/06 10:25:22;;;;;;;3.30;2.03;;;;;;;18.64;54.23;100540.72;5060310;28;20399;-65
2022/12/06 10:27:52;;;;;;;3.37;1.70;;;;;;;18.68;54.18;100533.03;4960450;28;20534;-65
2022/12/06 10:30:17;;;;;;;4.07;1.73;;;;;;;18.68;53.99;100532.19;5070994;28;20893;-65
2022/12/06 10:33:06;;;;;;;2.70;1.70;;;;;;;18.60;54.64;100539.81;5025568;28;20422;-65
2022/12/06 10:35:39;;;;;;;2.73;1.90;;;;;;;18.65;54.55;100530.91;5047316;28;20274;-64
2022/12/06 10:38:22;;;;;;;2.90;1.90;;;;;;;18.65;54.08;100535.81;5061608;28;20515;-65
2022/12/06 10:41:15;;;;;;;2.90;1.70;;;;;;;18.59;54.26;100532.44;5064640;28;20450;-64
2022/12/06 10:44:20;;;;;;;3.43;1.80;;;;;;;18.62;54.58;100536.56;5078094;28;20770;-65
2022/12/06 10:47:05;;;;;;;2.30;1.60;;;;;;;18.59;54.77;100538.16;5060989;28;20521;-64
2022/12/06 10:49:49;;;;;;;3.23;1.80;;;;;;;18.59;54.26;100535.28;5043984;28;20402;-64
2022/12/06 10:52:43;;;;;;;3.10;1.80;;;;;;;18.59;54.34;100531.59;5063197;28;20600;-64
2022/12/06 10:55:11;;;;;;;3.23;1.90;;;;;;;18.67;54.15;100539.13;5060523;28;20410;-64
2022/12/06 10:57:48;;;;;;;2.10;1.33;;;;;;;18.61;54.35;100532.06;5061178;28;20489;-64
2022/12/06 11:00:14;;;;;;;3.13;2.03;;;;;;;18.57;54.42;100531.97;5059307;28;20794;-64
2022/12/06 11:02:57;;;;;;;4.83;1.97;;;;;;;18.65;54.17;100530.91;5061853;28;20445;-64
2022/12/06 11:05:25;;;;;;;2.50;1.57;;;;;;;18.62;54.86;100528.81;5078919;28;20452;-64
2022/12/06 11:07:52;;;;;;;2.00;1.40;;;;;;;18.57;54.53;100523.38;5061036;28;20432;-64
2022/12/06 11:10:23;;;;;;;3.20;1.40;;;;;;;18.59;54.24;100521.00;5060701;28;20514;-64
2022/12/06 11:12:54;;;;;;;2.53;1.93;;;;;;;18.61;54.26;100526.34;5061182;28;20405;-64
2022/12/06 11:15:31;;;;;;;3.47;1.80;;;;;;;18.58;54.20;100527.91;5045043;28;20401;-64
2022/12/06 11:18:07;;;;;;;3.23;2.00;;;;;;;18.64;54.38;100517.84;5044760;28;20502;-65
2022/12/06 11:20:45;;;;;;;5.63;1.60;;;;;;;18.62;54.17;100516.56;5024878;28;20823;-65
2022/12/06 11:23:31;;;;;;;2.67;1.77;;;;;;;18.60;54.40;100519.78;5048405;28;20898;-65
2022/12/06 11:26:19;;;;;;;3.10;1.83;;;;;;;18.59;54.46;100521.00;5060690;28;20441;-64
2022/12/06 11:29:06;;;;;;;2.10;1.33;;;;;;;18.63;54.31;100516.19;5062402;28;20452;-64
2022/12/06 11:31:49;;;;;;;3.07;1.93;;;;;;;18.65;54.24;100513.75;5056589;28;21023;-64
2022/12/06 11:34:20;;;;;;;2.20;1.50;;;;;;;18.61;54.16;100517.75;5060999;28;20449;-64
2022/12/06 11:36:46;;;;;;;2.53;1.70;;;;;;;18.68;54.18;100518.75;5034876;28;20425;-64
2022/12/06 11:39:12;;;;;;;2.93;1.60;;;;;;;18.66;54.23;100523.19;5060688;28;20438;-64
2022/12/06 11:41:37;;;;;;;4.10;1.50;;;;;;;18.67;54.40;100519.91;5079726;28;20193;-66
2022/12/06 11:44:03;;;;;;;2.80;1.80;;;;;;;18.61;54.39;100515.72;5078034;28;20398;-66
2022/12/06 11:46:28;;;;;;;2.83;1.70;;;;;;;18.72;53.91;100519.63;5068306;28;20222;-66
2022/12/06 11:48:57;;;;;;;2.23;1.57;;;;;;;18.66;54.09;100514.59;5058673;28;20172;-66
2022/12/06 11:51:23;;;;;;;2.20;1.40;;;;;;;18.68;54.18;100515.03;5030877;28;20171;-66
2022/12/06 11:54:16;;;;;;;2.83;1.63;;;;;;;18.72;54.19;100516.75;5077245;28;20482;-66
2022/12/06 11:56:42;;;;;;;2.47;1.67;;;;;;;18.67;54.26;100522.78;5074857;28;20512;-66
2022/12/06 11:59:27;;;;;;;2.47;1.57;;;;;;;18.67;54.35;100522.78;5057567;28;20426;-66